createdAt,value
2017-08-11T00:02:02.780Z,94097.82
2017-08-11T00:04:30.523Z,94075.11
2017-08-11T00:06:58.333Z,94065.39
2017-08-11T00:09:26.049Z,94062.36
2017-08-11T00:11:53.736Z,94050.66
2017-08-11T00:14:21.500Z,94052.50
2017-08-11T00:16:49.260Z,94052.90
2017-08-11T00:19:17.017Z,94043.56
2017-08-11T00:21:44.757Z,94051.05
2017-08-11T00:24:12.568Z,94039.75
2017-08-11T00:26:40.333Z,94050.66
2017-08-11T00:29:08.116Z,94060.26
2017-08-11T00:31:35.865Z,94056.58
2017-08-11T00:34:03.620Z,94054.08
2017-08-11T00:36:32.383Z,94050.53
2017-08-11T00:39:00.138Z,94059.86
2017-08-11T00:41:27.925Z,94076.69
2017-08-11T00:43:55.619Z,94091.79
2017-08-11T00:46:23.381Z,94101.11
2017-08-11T00:48:51.091Z,94062.77
2017-08-11T00:51:18.874Z,94042.38
2017-08-11T00:53:46.611Z,94049.09
2017-08-11T00:56:14.307Z,94047.12
2017-08-11T00:58:42.028Z,94039.89
2017-08-11T01:01:09.751Z,94036.25
2017-08-11T01:03:37.426Z,94020.73
2017-08-11T01:06:05.159Z,94042.42
2017-08-11T01:08:32.999Z,94051.34
2017-08-11T01:11:00.811Z,94074.58
2017-08-11T01:13:28.509Z,94090.20
2017-08-11T01:15:56.276Z,94103.63
2017-08-11T01:18:24.000Z,94115.56
2017-08-11T01:20:51.689Z,94098.09
2017-08-11T01:23:19.442Z,94034.39
2017-08-11T01:25:47.108Z,93945.08
2017-08-11T01:28:14.830Z,93891.75
2017-08-11T01:30:42.594Z,93862.05
2017-08-11T01:33:10.320Z,93874.02
2017-08-11T01:35:38.080Z,93890.63
2017-08-11T01:38:05.872Z,93929.43
2017-08-11T01:40:33.577Z,93961.39
2017-08-11T01:43:01.357Z,93994.09
2017-08-11T01:45:29.151Z,93985.82
2017-08-11T01:47:56.841Z,93984.24
2017-08-11T01:50:24.579Z,93989.34
2017-08-11T01:52:52.336Z,94002.73
2017-08-11T01:55:20.058Z,93996.69
2017-08-11T01:57:47.759Z,93985.53
2017-08-11T02:00:15.609Z,93981.59
2017-08-11T02:02:43.495Z,93966.64
2017-08-11T02:05:11.375Z,93972.16
2017-08-11T02:07:39.180Z,93944.81
2017-08-11T02:10:06.993Z,93933.64
2017-08-11T02:12:34.810Z,93938.90
2017-08-11T02:15:03.978Z,93912.76
2017-08-11T02:17:31.753Z,93943.16
2017-08-11T02:19:59.545Z,93952.62
2017-08-11T02:22:27.316Z,93953.27
2017-08-11T02:24:55.197Z,93942.48
2017-08-11T02:27:22.990Z,93928.27
2017-08-11T02:29:50.742Z,93940.64
2017-08-11T02:32:18.464Z,93952.33
2017-08-11T02:34:46.215Z,93949.17
2017-08-11T02:37:13.925Z,93967.69
2017-08-11T02:39:42.692Z,93967.83
2017-08-11T02:42:10.449Z,93983.98
2017-08-11T02:44:38.184Z,93978.33
2017-08-11T02:47:05.943Z,93947.20
2017-08-11T02:49:33.669Z,93861.20
2017-08-11T02:52:01.405Z,93811.70
2017-08-11T02:54:30.347Z,93850.69
2017-08-11T02:56:58.049Z,93892.48
2017-08-11T02:59:25.815Z,93878.34
2017-08-11T03:01:53.525Z,93880.67
2017-08-11T03:04:21.246Z,93896.05
2017-08-11T03:06:49.542Z,93920.07
2017-08-11T03:09:17.241Z,93947.48
2017-08-11T03:11:45.000Z,93952.22
2017-08-11T03:14:12.701Z,93931.76
2017-08-11T03:16:40.470Z,93958.78
2017-08-11T03:19:08.180Z,93949.59
2017-08-11T03:21:35.977Z,93937.00
2017-08-11T03:24:03.664Z,93931.61
2017-08-11T03:26:31.447Z,93843.78
2017-08-11T03:28:59.146Z,93811.87
2017-08-11T03:31:26.856Z,93835.27
2017-08-11T03:33:54.601Z,93922.97
2017-08-11T03:36:22.281Z,93887.13
2017-08-11T03:38:49.975Z,93868.08
2017-08-11T03:41:17.713Z,93841.07
2017-08-11T03:43:45.396Z,93864.30
2017-08-11T03:46:13.180Z,93901.84
2017-08-11T03:48:40.889Z,93944.62
2017-08-11T03:51:08.646Z,93915.48
2017-08-11T03:53:36.335Z,93900.94
2017-08-11T03:56:04.123Z,93936.34
2017-08-11T03:58:31.827Z,93885.80
2017-08-11T04:00:59.521Z,93848.38
2017-08-11T04:03:27.314Z,93858.78
2017-08-11T04:05:55.069Z,93879.13
2017-08-11T04:08:22.781Z,93853.93
2017-08-11T04:10:50.555Z,93884.91
2017-08-11T04:13:18.309Z,93869.02
2017-08-11T04:15:46.142Z,93877.02
2017-08-11T04:18:13.844Z,93895.13
2017-08-11T04:20:41.557Z,93895.63
2017-08-11T04:23:09.302Z,93918.20
2017-08-11T04:25:37.037Z,93914.02
2017-08-11T04:28:04.755Z,93902.98
2017-08-11T04:30:32.513Z,93912.17
2017-08-11T04:33:00.226Z,93901.30
2017-08-11T04:35:27.960Z,93841.98
2017-08-11T04:37:55.711Z,93874.91
2017-08-11T04:40:23.477Z,93917.41
2017-08-11T04:42:51.185Z,93918.46
2017-08-11T04:45:18.935Z,93918.20
2017-08-11T04:47:46.658Z,93934.34
2017-08-11T04:50:14.456Z,93944.44
2017-08-11T04:52:42.141Z,93950.42
2017-08-11T04:55:09.920Z,93909.56
2017-08-11T04:57:37.624Z,93875.70
2017-08-11T05:00:05.373Z,93858.92
2017-08-11T05:02:33.138Z,93881.86
2017-08-11T05:05:00.906Z,93916.49
2017-08-11T05:07:28.664Z,93919.39
2017-08-11T05:09:56.363Z,93917.02
2017-08-11T05:12:25.270Z,93884.38
2017-08-11T05:14:53.023Z,93878.98
2017-08-11T05:17:21.539Z,93906.23
2017-08-11T05:19:49.357Z,93982.14
2017-08-11T05:22:18.692Z,93952.76
2017-08-11T05:24:47.006Z,93918.30
2017-08-11T05:27:15.638Z,93892.99
2017-08-11T05:29:43.438Z,93874.77
2017-08-11T05:32:11.151Z,93833.61
2017-08-11T05:34:38.884Z,93776.58
2017-08-11T05:37:07.712Z,93780.38
2017-08-11T05:39:35.552Z,93783.80
2017-08-11T05:42:03.329Z,93836.23
2017-08-11T05:44:31.288Z,93896.42
2017-08-11T05:46:58.993Z,93901.13
2017-08-11T05:49:26.766Z,93885.48
2017-08-11T05:51:54.493Z,93874.79
2017-08-11T05:54:22.279Z,93850.23
2017-08-11T05:56:49.986Z,93891.16
2017-08-11T05:59:17.783Z,93894.44
2017-08-11T06:01:45.558Z,93882.10
2017-08-11T06:04:13.303Z,93861.02
2017-08-11T06:06:41.106Z,93849.34
2017-08-11T06:09:08.894Z,93863.12
2017-08-11T06:11:36.713Z,93887.10
2017-08-11T06:14:04.482Z,93871.64
2017-08-11T06:16:32.294Z,93873.20
2017-08-11T06:19:00.126Z,93885.14
2017-08-11T06:21:27.936Z,93889.46
2017-08-11T06:23:55.769Z,93895.89
2017-08-11T06:26:23.506Z,93908.63
2017-08-11T06:28:51.368Z,93905.88
2017-08-11T06:31:19.120Z,93898.52
2017-08-11T06:33:47.060Z,93902.18
2017-08-11T06:36:14.796Z,93893.16
2017-08-11T06:38:42.504Z,93900.62
2017-08-11T06:41:10.234Z,93906.94
2017-08-11T06:43:37.996Z,93901.82
2017-08-11T06:46:05.686Z,93903.13
2017-08-11T06:48:33.491Z,93902.98
2017-08-11T06:51:01.329Z,93914.92
2017-08-11T06:53:29.061Z,93920.67
2017-08-11T06:55:56.915Z,93905.73
2017-08-11T06:58:24.675Z,93908.73
2017-08-11T07:00:52.467Z,93897.59
2017-08-11T07:03:20.233Z,93898.38
2017-08-11T07:05:47.952Z,93904.52
2017-08-11T07:08:15.694Z,93909.91
2017-08-11T07:10:43.429Z,93913.04
2017-08-11T07:13:11.178Z,93916.55
2017-08-11T07:15:38.955Z,93923.75
2017-08-11T07:18:06.675Z,93930.01
2017-08-11T07:20:34.428Z,93909.22
2017-08-11T07:23:02.144Z,93908.98
2017-08-11T07:25:30.094Z,93908.47
2017-08-11T07:27:57.951Z,93916.43
2017-08-11T07:30:25.726Z,93928.23
2017-08-11T07:32:53.537Z,93909.86
2017-08-11T07:35:21.345Z,93892.54
2017-08-11T07:37:49.216Z,93917.06
2017-08-11T07:40:17.023Z,93936.66
2017-08-11T07:42:44.886Z,93930.11
2017-08-11T07:45:12.671Z,93926.61
2017-08-11T07:47:41.203Z,93922.17
2017-08-11T07:50:08.884Z,93921.00
2017-08-11T07:52:37.559Z,93923.23
2017-08-11T07:55:05.360Z,93921.27
2017-08-11T07:57:33.075Z,93908.42
2017-08-11T08:00:00.912Z,93870.84
2017-08-11T08:02:28.716Z,93871.88
2017-08-11T08:04:56.418Z,93882.50
2017-08-11T08:07:24.122Z,93906.84
2017-08-11T08:09:51.881Z,93930.62
2017-08-11T08:12:20.459Z,93932.42
2017-08-11T08:14:48.165Z,93921.42
2017-08-11T08:17:15.974Z,93937.41
2017-08-11T08:19:43.779Z,93943.55
2017-08-11T08:22:11.461Z,93971.39
2017-08-11T08:24:39.195Z,93980.88
2017-08-11T08:27:07.026Z,94010.43
2017-08-11T08:29:34.715Z,94001.30
2017-08-11T08:32:02.419Z,93905.59
2017-08-11T08:34:30.203Z,93853.88
2017-08-11T08:36:57.939Z,93948.04
2017-08-11T08:39:25.653Z,93991.42
2017-08-11T08:41:54.501Z,93948.71
2017-08-11T08:44:22.305Z,93957.05
2017-08-11T08:46:50.150Z,93903.06
2017-08-11T08:49:17.861Z,93885.51
2017-08-11T08:51:45.609Z,93831.41
2017-08-11T08:54:13.409Z,93793.37
2017-08-11T08:56:41.148Z,93860.02
2017-08-11T08:59:08.916Z,93852.16
2017-08-11T09:01:36.836Z,93842.92
2017-08-11T09:04:04.627Z,93881.86
2017-08-11T09:06:32.375Z,93828.16
2017-08-11T09:09:00.206Z,93855.36
2017-08-11T09:11:27.927Z,93928.29
2017-08-11T09:13:55.714Z,93904.75
2017-08-11T09:16:23.418Z,93922.52
2017-08-11T09:18:51.204Z,93927.59
2017-08-11T09:21:18.982Z,93912.05
2017-08-11T09:23:46.735Z,93903.70
2017-08-11T09:26:26.373Z,93895.75
2017-08-11T09:29:05.846Z,93890.81
2017-08-11T09:34:55.197Z,93895.80
2017-08-11T09:37:22.988Z,93886.86
2017-08-11T09:39:50.799Z,93872.82
2017-08-11T09:42:18.560Z,93885.42
2017-08-11T09:44:46.392Z,93904.95
2017-08-11T09:47:14.108Z,93903.37
2017-08-11T09:49:41.867Z,93901.67
2017-08-11T09:52:09.659Z,93885.95
2017-08-11T09:54:37.444Z,93878.99
2017-08-11T09:57:05.233Z,93843.72
2017-08-11T09:59:33.021Z,93832.80
2017-08-11T10:02:00.841Z,93824.89
2017-08-11T10:04:28.640Z,93842.87
2017-08-11T10:06:56.505Z,93874.13
2017-08-11T10:09:24.218Z,93890.65
2017-08-11T10:11:51.934Z,93873.73
2017-08-11T10:14:19.725Z,93864.44
2017-08-11T10:16:47.418Z,93875.05
2017-08-11T10:19:15.994Z,93882.92
2017-08-11T10:21:43.802Z,93873.09
2017-08-11T10:24:11.574Z,93865.99
2017-08-11T10:26:39.339Z,93877.55
2017-08-11T10:29:07.062Z,93899.20
2017-08-11T10:31:34.852Z,93926.89
2017-08-11T10:34:02.616Z,93939.72
2017-08-11T10:36:30.404Z,93935.38
2017-08-11T10:38:58.173Z,93923.70
2017-08-11T10:41:25.999Z,93940.49
2017-08-11T10:43:53.701Z,93917.16
2017-08-11T10:46:21.504Z,93914.66
2017-08-11T10:48:49.308Z,93915.32
2017-08-11T10:51:17.013Z,93912.83
2017-08-11T10:53:44.774Z,93890.80
2017-08-11T10:56:12.531Z,93901.41
2017-08-11T10:58:41.109Z,93902.98
2017-08-11T11:01:08.885Z,93918.56
2017-08-11T11:03:36.622Z,93934.14
2017-08-11T11:06:04.373Z,93985.84
2017-08-11T11:08:32.096Z,94087.02
2017-08-11T11:10:59.863Z,94058.42
2017-08-11T11:13:27.570Z,93947.15
2017-08-11T11:15:55.303Z,93882.44
2017-08-11T11:18:23.061Z,93862.29
2017-08-11T11:20:51.587Z,93867.58
2017-08-11T11:23:19.575Z,93824.27
2017-08-11T11:25:47.307Z,93856.91
2017-08-11T11:28:15.037Z,93869.54
2017-08-11T11:30:42.830Z,93877.41
2017-08-11T11:33:10.579Z,93865.40
2017-08-11T11:35:38.357Z,93856.13
2017-08-11T11:38:06.106Z,93842.35
2017-08-11T11:40:33.831Z,93847.09
2017-08-11T11:43:01.671Z,93841.10
2017-08-11T11:45:29.357Z,93853.89
2017-08-11T11:47:57.116Z,93867.84
2017-08-11T11:50:24.835Z,93874.86
2017-08-11T11:52:52.585Z,93882.31
2017-08-11T11:55:20.273Z,93877.33
2017-08-11T11:57:48.062Z,93874.27
2017-08-11T12:00:15.830Z,93872.23
2017-08-11T12:02:43.518Z,93876.45
2017-08-11T12:05:11.305Z,93881.20
2017-08-11T12:07:38.998Z,93883.20
2017-08-11T12:10:06.764Z,93875.47
2017-08-11T12:12:34.571Z,93882.86
2017-08-11T12:15:02.266Z,93882.50
2017-08-11T12:17:30.012Z,93888.98
2017-08-11T12:19:57.852Z,93907.57
2017-08-11T12:22:25.668Z,93905.27
2017-08-11T12:24:53.381Z,93901.68
2017-08-11T12:27:21.110Z,93912.58
2017-08-11T12:29:49.579Z,93911.28
2017-08-11T12:32:17.263Z,93910.55
2017-08-11T12:34:44.983Z,93893.40
2017-08-11T12:37:12.657Z,93883.62
2017-08-11T12:39:40.423Z,93885.80
2017-08-11T12:42:08.154Z,93889.68
2017-08-11T12:44:35.898Z,93903.09
2017-08-11T12:47:03.643Z,93888.17
2017-08-11T12:49:31.365Z,93879.48
2017-08-11T12:51:59.120Z,93880.45
2017-08-11T12:54:26.840Z,93884.50
2017-08-11T12:56:54.619Z,93877.67
2017-08-11T12:59:22.401Z,93895.13
2017-08-11T13:01:50.887Z,93889.63
2017-08-11T13:04:18.640Z,93882.74
2017-08-11T13:06:46.379Z,93879.73
2017-08-11T13:09:14.199Z,93879.40
2017-08-11T13:11:41.913Z,93886.46
2017-08-11T13:14:10.520Z,93876.06
2017-08-11T13:16:38.251Z,93879.51
2017-08-11T13:19:05.969Z,93891.58
2017-08-11T13:21:33.718Z,93908.69
2017-08-11T13:24:01.434Z,93915.08
2017-08-11T13:26:29.267Z,93912.78
2017-08-11T13:28:57.960Z,93931.45
2017-08-11T13:31:25.710Z,93938.56
2017-08-11T13:33:53.535Z,93952.38
2017-08-11T13:36:21.357Z,93953.50
2017-08-11T13:38:49.072Z,93966.27
2017-08-11T13:41:16.838Z,93970.45
2017-08-11T13:43:44.591Z,93962.27
2017-08-11T13:46:12.378Z,93978.72
2017-08-11T13:48:40.083Z,93976.13
2017-08-11T13:51:07.843Z,93963.14
2017-08-11T13:53:35.659Z,93951.04
2017-08-11T13:56:03.420Z,93934.66
2017-08-11T13:58:31.164Z,93924.34
2017-08-11T14:00:58.918Z,93925.73
2017-08-11T14:03:26.729Z,93919.18
2017-08-11T14:05:54.448Z,93938.75
2017-08-11T14:08:22.284Z,93961.32
2017-08-11T14:10:49.990Z,93965.45
2017-08-11T14:13:17.756Z,93968.64
2017-08-11T14:15:45.519Z,93966.99
2017-08-11T14:18:13.843Z,93971.98
2017-08-11T14:20:41.668Z,93976.88
2017-08-11T14:23:09.435Z,93974.35
2017-08-11T14:25:37.129Z,93989.41
2017-08-11T14:28:05.865Z,93990.88
2017-08-11T14:30:33.777Z,93991.66
2017-08-11T14:33:01.596Z,94016.89
2017-08-11T14:35:29.364Z,93992.05
2017-08-11T14:37:57.192Z,93960.47
2017-08-11T14:40:26.131Z,93961.27
2017-08-11T14:42:53.837Z,93969.02
2017-08-11T14:45:21.593Z,93979.11
2017-08-11T14:47:49.300Z,93989.39
2017-08-11T14:50:17.092Z,94002.13
2017-08-11T14:52:44.802Z,93996.91
2017-08-11T14:55:12.554Z,93985.14
2017-08-11T14:57:41.186Z,93988.56
2017-08-11T15:00:08.927Z,93995.58
2017-08-11T15:02:36.677Z,93999.44
2017-08-11T15:05:04.364Z,93991.22
2017-08-11T15:07:32.143Z,93997.27
2017-08-11T15:09:59.883Z,94012.86
2017-08-11T15:12:27.588Z,94013.70
2017-08-11T15:14:55.430Z,94005.17
2017-08-11T15:17:23.136Z,93994.63
2017-08-11T15:19:50.904Z,94004.45
2017-08-11T15:22:18.722Z,94012.48
2017-08-11T15:24:46.503Z,94012.98
2017-08-11T15:27:14.238Z,94018.73
2017-08-11T15:29:41.986Z,94020.86
2017-08-11T15:32:10.087Z,94026.24
2017-08-11T15:34:37.845Z,94025.64
2017-08-11T15:37:05.650Z,94024.95
2017-08-11T15:39:33.381Z,94020.78
2017-08-11T15:42:01.136Z,94017.50
2017-08-11T15:44:28.878Z,94012.75
2017-08-11T15:46:56.599Z,94022.02
2017-08-11T15:49:24.438Z,94017.92
2017-08-11T15:51:52.146Z,94012.65
2017-08-11T15:54:19.913Z,94018.25
2017-08-11T15:56:47.617Z,94026.19
2017-08-11T15:59:15.337Z,94028.99
2017-08-11T16:01:43.109Z,94015.33
2017-08-11T16:04:10.873Z,94026.37
2017-08-11T16:06:38.742Z,94021.25
2017-08-11T16:09:06.615Z,94025.20
2017-08-11T16:11:34.349Z,94022.45
2017-08-11T16:14:02.174Z,94011.85
2017-08-11T16:16:29.941Z,94011.39
2017-08-11T16:18:57.690Z,94008.72
2017-08-11T16:21:25.460Z,94008.39
2017-08-11T16:23:53.216Z,94009.16
2017-08-11T16:26:20.963Z,94008.71
2017-08-11T16:28:48.751Z,93999.94
2017-08-11T16:31:16.536Z,93996.88
2017-08-11T16:33:44.244Z,93993.34
2017-08-11T16:36:11.999Z,94004.72
2017-08-11T16:38:39.812Z,94011.44
2017-08-11T16:41:07.565Z,94010.84
2017-08-11T16:43:35.361Z,94010.05
2017-08-11T16:46:03.058Z,94018.39
2017-08-11T16:48:30.863Z,94021.68
2017-08-11T16:50:58.653Z,94025.30
2017-08-11T16:53:26.472Z,94026.89
2017-08-11T16:55:54.271Z,94028.98
2017-08-11T16:58:21.983Z,94026.42
2017-08-11T17:00:49.802Z,94031.16
2017-08-11T17:03:17.642Z,94031.43
2017-08-11T17:05:45.483Z,94031.02
2017-08-11T17:08:13.338Z,94027.41
2017-08-11T17:10:41.198Z,94033.02
2017-08-11T17:13:09.036Z,94028.94
2017-08-11T17:15:36.991Z,94034.71
2017-08-11T17:18:04.923Z,94027.75
2017-08-11T17:20:32.780Z,94021.58
2017-08-11T17:23:00.569Z,94021.09
2017-08-11T17:25:28.286Z,94019.64
2017-08-11T17:27:56.687Z,94016.23
2017-08-11T17:30:24.467Z,94015.20
2017-08-11T17:32:52.492Z,94020.45
2017-08-11T17:35:20.279Z,94015.05
2017-08-11T17:37:48.074Z,94013.40
2017-08-11T17:40:15.846Z,94014.84
2017-08-11T17:42:43.536Z,94023.22
2017-08-11T17:45:11.327Z,94026.95
2017-08-11T17:47:39.063Z,94031.03
2017-08-11T17:50:06.861Z,94027.75
2017-08-11T17:52:34.618Z,94028.44
2017-08-11T17:55:02.412Z,94033.05
2017-08-11T17:57:30.490Z,94038.70
2017-08-11T17:59:58.582Z,94035.16
2017-08-11T18:02:26.330Z,94036.73
2017-08-11T18:04:54.182Z,94038.70
2017-08-11T18:07:21.906Z,94037.52
2017-08-11T18:09:49.714Z,94038.97
2017-08-11T18:12:17.447Z,94045.95
2017-08-11T18:14:45.285Z,94047.41
2017-08-11T18:17:13.073Z,94048.44
2017-08-11T18:19:40.925Z,94045.31
2017-08-11T18:22:08.686Z,94050.03
2017-08-11T18:24:36.531Z,94047.91
2017-08-11T18:27:04.227Z,94043.98
2017-08-11T18:29:35.181Z,94046.23
2017-08-11T18:32:02.907Z,94053.83
2017-08-11T18:34:34.711Z,94045.68
2017-08-11T18:37:03.674Z,94047.53
2017-08-11T18:39:31.675Z,94052.12
2017-08-11T18:41:59.443Z,94059.33
2017-08-11T18:44:27.265Z,94057.63
2017-08-11T18:46:55.071Z,94055.27
2017-08-11T18:49:22.829Z,94055.78
2017-08-11T18:51:50.636Z,94065.39
2017-08-11T18:54:18.462Z,94066.16
2017-08-11T18:56:47.109Z,94071.30
2017-08-11T18:59:15.428Z,94072.63
2017-08-11T19:01:43.177Z,94077.73
2017-08-11T19:04:10.991Z,94074.19
2017-08-11T19:06:38.868Z,94078.77
2017-08-11T19:09:06.762Z,94081.13
2017-08-11T19:11:34.512Z,94078.50
2017-08-11T19:14:03.164Z,94076.80
2017-08-11T19:16:32.125Z,94080.33
2017-08-11T19:18:59.891Z,94077.84
2017-08-11T19:21:27.719Z,94088.20
2017-08-11T19:23:55.536Z,94088.45
2017-08-11T19:26:23.515Z,94088.33
2017-08-11T19:28:52.182Z,94096.56
2017-08-11T19:31:20.012Z,94092.76
2017-08-11T19:33:47.840Z,94094.20
2017-08-11T19:36:15.632Z,94096.56
2017-08-11T19:38:43.395Z,94093.81
2017-08-11T19:41:11.129Z,94103.12
2017-08-11T19:43:40.142Z,94103.59
2017-08-11T20:29:47.630Z,94140.77
2017-08-11T20:32:15.384Z,94140.90
2017-08-11T20:34:43.141Z,94134.65
2017-08-11T20:37:12.339Z,94143.27
2017-08-11T20:39:40.057Z,94135.40
2017-08-11T20:42:07.896Z,94143.54
2017-08-11T20:44:35.608Z,94140.70
2017-08-11T20:47:03.381Z,94147.47
2017-08-11T20:49:31.178Z,94139.44
2017-08-11T20:51:58.928Z,94141.70
2017-08-11T20:54:26.878Z,94150.08
2017-08-11T20:56:54.644Z,94149.45
2017-08-11T20:59:22.531Z,94152.30
2017-08-11T21:01:50.277Z,94157.25
2017-08-11T21:04:18.025Z,94158.99
2017-08-11T21:06:45.836Z,94156.09
2017-08-11T21:09:13.622Z,94160.86
2017-08-11T21:11:41.452Z,94162.78
2017-08-11T21:14:09.290Z,94166.42
2017-08-11T21:16:37.209Z,94163.72
2017-08-11T21:19:05.040Z,94170.28
2017-08-11T21:21:32.763Z,94175.32
2017-08-11T21:24:00.551Z,94171.16
2017-08-11T21:26:28.276Z,94174.67
2017-08-11T21:28:56.051Z,94178.63
2017-08-11T21:31:23.896Z,94183.95
2017-08-11T21:33:51.623Z,94181.62
2017-08-11T21:36:19.415Z,94188.25
2017-08-11T21:38:47.275Z,94187.21
2017-08-11T21:41:15.107Z,94193.86
2017-08-11T21:43:42.838Z,94198.89
2017-08-11T21:46:10.610Z,94202.91
2017-08-11T21:48:38.366Z,94202.56
2017-08-11T21:51:06.092Z,94211.70
2017-08-11T21:53:33.831Z,94206.03
2017-08-11T21:56:01.705Z,94218.20
2017-08-11T21:58:29.462Z,94215.20
2017-08-11T22:00:57.245Z,94217.95
2017-08-11T22:03:24.987Z,94219.83
2017-08-11T22:05:52.747Z,94218.20
2017-08-11T22:08:20.520Z,94215.03
2017-08-11T22:10:48.290Z,94211.25
2017-08-11T22:13:16.886Z,94218.79
2017-08-11T22:15:44.855Z,94217.16
2017-08-11T22:18:12.690Z,94210.41
2017-08-11T22:20:40.576Z,94210.80
2017-08-11T22:23:08.527Z,94207.64
2017-08-11T22:25:36.284Z,94204.33
2017-08-11T22:28:04.057Z,94212.88
2017-08-11T22:30:31.918Z,94213.23
2017-08-11T22:32:59.647Z,94216.45
2017-08-11T22:35:27.387Z,94217.05
2017-08-11T22:37:55.121Z,94221.48
2017-08-11T22:40:22.879Z,94224.62
2017-08-11T22:42:50.668Z,94222.42
2017-08-11T22:45:18.483Z,94222.31
2017-08-11T22:47:46.281Z,94220.48
2017-08-11T22:50:14.162Z,94222.06
2017-08-11T22:52:41.885Z,94225.72
2017-08-11T22:55:09.752Z,94233.03
2017-08-11T22:57:37.532Z,94230.69
2017-08-11T23:00:05.335Z,94237.33
2017-08-11T23:02:33.036Z,94234.69
2017-08-11T23:05:00.837Z,94231.97
2017-08-11T23:07:28.592Z,94242.54
2017-08-11T23:09:56.340Z,94241.88
2017-08-11T23:12:24.059Z,94239.08
2017-08-11T23:14:51.807Z,94240.14
2017-08-11T23:17:19.529Z,94243.98
2017-08-11T23:19:47.240Z,94246.50
2017-08-11T23:22:14.990Z,94241.78
2017-08-11T23:24:42.741Z,94238.55
2017-08-11T23:27:10.451Z,94243.00
2017-08-11T23:29:38.198Z,94239.22
2017-08-11T23:32:05.907Z,94233.16
2017-08-11T23:34:33.656Z,94238.09
2017-08-11T23:37:01.420Z,94238.09
2017-08-11T23:39:29.173Z,94237.25
2017-08-11T23:41:56.971Z,94233.05
2017-08-11T23:44:24.784Z,94236.30
2017-08-11T23:46:52.449Z,94226.67
2017-08-11T23:49:20.170Z,94226.86
2017-08-11T23:51:47.899Z,94230.87
2017-08-11T23:54:15.583Z,94233.23
2017-08-11T23:56:43.325Z,94230.15
2017-08-11T23:59:11.021Z,94237.27
